Buffville, Kansas
Current Conditions -  °F | °C
As of 12:52 AM on Sunday 26 Oct 2014 (Local Time) from KPPF Reporting Station
Clear Clear  
Wind Chill: 67°   Ceiling: Unl
Heat Index: 67°   Visibility: 10mi
Dew Point: 63°   Wind: 0mph
Humidity: 87%   Direction: NA
Pressure: 29.97"   Gusts: NA
Location:  37.428°N, 95.6341°W
Report Text: KPPF 260552Z AUTO 00000KT 10SM CLR 19/17 A2997 RMK AO2 SLP139 T01940172 10211 20183 402940122 58012
Loading
Personal Weather Stations






























Interactive Weather Map
Tropical Storm Tracking
New forecast layout! Learn more

10-Day Weather Forecast

Advertisements
Track Severe Weather on mobile